Aviation Digital Data Service (ADDS)

Output produced by METARs form (1651 UTC 20 January 2019)
found at http://www.aviationweather.gov/metar/data/
 
TAF EGYP 201629Z 2018/2112 23008KT 9999 FEW015 
     TEMPO 2021/2103 7000 RA SCT012 
     PROB40 
     TEMPO 2022/2103 3000 +RA 
     PROB40 
     TEMPO 2022/2024 SCT005 
     PROB30 
     TEMPO 2100/2103 SCT004 
     BECMG 2103/2106 BKN012 
     TEMPO 2103/2112 3000 RADZ SCT004